createdAt,value
2022-11-01T00:01:39.517Z,18.48
2022-11-01T00:04:08.822Z,18.50
2022-11-01T00:06:37.152Z,18.53
2022-11-01T00:09:06.013Z,18.54
2022-11-01T00:11:34.499Z,18.52
2022-11-01T00:14:03.960Z,18.46
2022-11-01T00:16:32.279Z,18.44
2022-11-01T00:19:00.306Z,18.44
2022-11-01T00:21:28.464Z,18.51
2022-11-01T00:23:56.527Z,18.36
2022-11-01T00:26:26.012Z,18.48
2022-11-01T00:28:54.271Z,18.56
2022-11-01T00:31:23.712Z,18.63
2022-11-01T00:33:51.865Z,18.66
2022-11-01T00:36:19.944Z,18.65
2022-11-01T00:38:51.264Z,18.67
2022-11-01T00:41:20.802Z,18.74
2022-11-01T00:43:49.079Z,18.69
2022-11-01T00:46:17.365Z,18.54
2022-11-01T00:48:46.732Z,18.70
2022-11-01T00:51:14.815Z,18.51
2022-11-01T00:53:43.089Z,18.54
2022-11-01T00:56:11.152Z,18.56
2022-11-01T00:58:39.152Z,18.55
2022-11-01T01:01:07.428Z,18.46
2022-11-01T01:03:35.897Z,18.59
2022-11-01T01:06:05.616Z,18.74
2022-11-01T01:08:33.656Z,18.81
2022-11-01T01:11:01.624Z,18.87
2022-11-01T01:13:29.698Z,18.81
2022-11-01T01:15:58.087Z,18.85
2022-11-01T01:18:26.063Z,18.77
2022-11-01T01:21:01.620Z,18.81
2022-11-01T01:23:31.043Z,18.65
2022-11-01T01:25:59.225Z,18.80
2022-11-01T01:28:27.212Z,18.86
2022-11-01T01:30:55.234Z,18.85
2022-11-01T01:33:23.248Z,18.69
2022-11-01T01:35:51.579Z,18.56
2022-11-01T01:38:19.588Z,18.83
2022-11-01T01:40:48.989Z,18.78
2022-11-01T01:43:16.985Z,18.67
2022-11-01T01:45:45.417Z,18.85
2022-11-01T01:48:18.835Z,18.67
2022-11-01T01:50:50.335Z,18.98
2022-11-01T01:53:24.146Z,19.06
2022-11-01T01:55:57.701Z,19.00
2022-11-01T01:58:30.085Z,19.05
2022-11-01T02:00:58.458Z,19.09
2022-11-01T02:03:30.529Z,18.84
2022-11-01T02:06:02.571Z,19.06
2022-11-01T02:08:30.840Z,19.11
2022-11-01T02:11:02.378Z,19.14
2022-11-01T02:13:31.431Z,19.31
2022-11-01T02:16:29.638Z,19.29
2022-11-01T02:19:12.874Z,19.26
2022-11-01T02:21:56.291Z,19.24
2022-11-01T02:24:46.175Z,19.29
2022-11-01T02:27:19.132Z,19.28
2022-11-01T02:30:10.937Z,19.33
2022-11-01T02:32:48.348Z,19.47
2022-11-01T02:35:23.917Z,19.54
2022-11-01T02:37:56.789Z,19.48
2022-11-01T02:40:30.103Z,19.50
2022-11-01T02:43:03.772Z,19.47
2022-11-01T02:45:36.517Z,19.54
2022-11-01T02:48:07.083Z,19.60
2022-11-01T02:50:40.711Z,19.65
2022-11-01T02:53:09.241Z,19.65
2022-11-01T02:55:37.353Z,19.71
2022-11-01T02:58:07.156Z,19.67
2022-11-01T03:00:37.281Z,19.66
2022-11-01T03:03:15.003Z,19.39
2022-11-01T03:05:54.204Z,19.65
2022-11-01T03:08:26.712Z,19.69
2022-11-01T03:11:04.811Z,19.59
2022-11-01T03:13:52.286Z,19.52
2022-11-01T03:16:29.052Z,19.66
2022-11-01T03:19:10.939Z,19.69
2022-11-01T03:21:43.549Z,19.66
2022-11-01T03:24:19.781Z,19.73
2022-11-01T03:26:54.061Z,19.79
2022-11-01T03:29:24.020Z,19.83
2022-11-01T03:31:54.449Z,19.89
2022-11-01T03:34:25.808Z,19.82
2022-11-01T03:36:59.357Z,19.84
2022-11-01T03:39:32.836Z,19.76
2022-11-01T03:42:06.063Z,19.86
2022-11-01T03:44:38.075Z,19.91
2022-11-01T03:47:06.124Z,19.95
2022-11-01T03:49:35.498Z,20.01
2022-11-01T03:52:03.533Z,19.89
2022-11-01T03:54:31.505Z,19.95
2022-11-01T03:56:59.534Z,19.86
2022-11-01T03:59:27.551Z,20.00
2022-11-01T04:01:55.729Z,20.12
2022-11-01T04:04:24.049Z,20.14
2022-11-01T04:06:53.489Z,20.15
2022-11-01T04:09:21.471Z,20.26
2022-11-01T04:11:49.482Z,20.26
2022-11-01T04:14:34.704Z,20.25
2022-11-01T04:17:19.989Z,20.32
2022-11-01T04:20:05.199Z,20.36
2022-11-01T04:22:40.681Z,20.40
2022-11-01T04:25:09.223Z,20.50
2022-11-01T04:27:37.200Z,20.45
2022-11-01T04:30:05.681Z,20.55
2022-11-01T04:32:33.671Z,20.57
2022-11-01T04:35:01.741Z,20.58
2022-11-01T04:37:31.588Z,20.51
2022-11-01T04:40:00.943Z,20.45
2022-11-01T04:42:28.974Z,20.49
2022-11-01T04:44:56.968Z,20.57
2022-11-01T04:47:24.964Z,20.51
2022-11-01T04:49:53.041Z,20.66
2022-11-01T04:52:21.040Z,20.65
2022-11-01T04:54:49.129Z,20.54
2022-11-01T04:57:24.329Z,20.48
2022-11-01T04:59:53.258Z,20.60
2022-11-01T05:02:22.102Z,20.65
2022-11-01T05:04:50.302Z,20.62
2022-11-01T05:07:18.321Z,20.57
2022-11-01T05:09:46.324Z,20.50
2022-11-01T05:12:14.331Z,20.44
2022-11-01T05:14:43.732Z,20.51
2022-11-01T05:17:11.841Z,20.51
2022-11-01T05:19:39.872Z,20.50
2022-11-01T05:22:07.896Z,20.41
2022-11-01T05:24:35.976Z,20.57
2022-11-01T05:27:04.523Z,20.56
2022-11-01T05:29:33.430Z,20.69
2022-11-01T05:32:03.478Z,20.62
2022-11-01T05:34:31.540Z,20.62
2022-11-01T05:36:59.573Z,20.60
2022-11-01T05:39:27.541Z,20.71
2022-11-01T05:41:58.294Z,20.76
2022-11-01T05:44:29.740Z,20.76
2022-11-01T05:46:57.871Z,20.76
2022-11-01T05:49:27.295Z,20.80
2022-11-01T05:51:55.307Z,20.86
2022-11-01T05:54:23.344Z,20.79
2022-11-01T05:56:51.311Z,20.81
2022-11-01T05:59:19.388Z,20.81
2022-11-01T06:01:47.505Z,20.73
2022-11-01T06:04:15.884Z,20.85
2022-11-01T06:06:45.493Z,20.98
2022-11-01T06:09:13.501Z,21.05
2022-11-01T06:11:41.913Z,20.94
2022-11-01T06:14:12.693Z,21.03
2022-11-01T06:16:40.728Z,21.03
2022-11-01T06:19:09.889Z,20.90
2022-11-01T06:21:37.887Z,21.04
2022-11-01T06:24:07.739Z,21.02
2022-11-01T06:26:35.745Z,21.06
2022-11-01T06:29:04.712Z,21.03
2022-11-01T06:31:32.760Z,20.99
2022-11-01T06:34:00.915Z,21.03
2022-11-01T06:36:29.023Z,21.19
2022-11-01T06:38:56.987Z,21.13
2022-11-01T06:41:26.422Z,21.05
2022-11-01T06:43:54.442Z,21.15
2022-11-01T06:46:22.457Z,21.20
2022-11-01T06:48:50.460Z,21.21
2022-11-01T06:51:18.548Z,21.24
2022-11-01T06:53:46.502Z,21.29
2022-11-01T06:56:14.480Z,21.20
2022-11-01T06:58:43.867Z,21.21
2022-11-01T07:01:11.910Z,21.33
2022-11-01T07:03:40.032Z,21.25
2022-11-01T07:06:08.840Z,21.34
2022-11-01T07:08:36.812Z,21.20
2022-11-01T07:11:05.007Z,21.16
2022-11-01T07:13:33.971Z,21.13
2022-11-01T07:16:04.262Z,21.23
2022-11-01T07:18:32.680Z,21.27
2022-11-01T07:21:03.066Z,21.17
2022-11-01T07:23:31.732Z,21.19
2022-11-01T07:26:00.052Z,21.25
2022-11-01T07:28:28.233Z,21.10
2022-11-01T07:30:56.687Z,21.02
2022-11-01T07:33:26.164Z,20.87
2022-11-01T07:35:54.488Z,20.72
2022-11-01T07:38:22.626Z,20.75
2022-11-01T07:40:52.377Z,20.76
2022-11-01T07:43:20.469Z,20.78
2022-11-01T07:45:49.033Z,20.78
2022-11-01T07:48:19.334Z,20.74
2022-11-01T07:50:48.750Z,20.61
2022-11-01T07:53:18.943Z,20.54
2022-11-01T07:55:47.644Z,20.58
2022-11-01T07:58:16.871Z,20.46
2022-11-01T08:00:46.115Z,20.58
2022-11-01T08:03:16.064Z,20.83
2022-11-01T08:05:44.865Z,20.92
2022-11-01T08:08:15.037Z,21.47
2022-11-01T08:10:43.411Z,21.70
2022-11-01T08:13:16.768Z,22.14
2022-11-01T08:15:45.087Z,22.41
2022-11-01T08:18:13.301Z,22.81
2022-11-01T08:20:41.708Z,22.99
2022-11-01T08:23:10.403Z,22.90
2022-11-01T08:25:40.476Z,22.84
2022-11-01T08:28:10.717Z,22.83
2022-11-01T08:30:40.688Z,22.96
2022-11-01T08:33:08.671Z,23.03
2022-11-01T08:35:37.236Z,23.09
2022-11-01T08:38:05.978Z,23.18
2022-11-01T08:40:34.954Z,23.25
2022-11-01T08:43:04.780Z,23.13
2022-11-01T08:45:33.221Z,23.01
2022-11-01T08:48:03.415Z,23.06
2022-11-01T08:50:33.134Z,23.22
2022-11-01T08:53:04.934Z,23.42
2022-11-01T08:55:37.348Z,23.40
2022-11-01T08:58:08.015Z,22.92
2022-11-01T09:00:36.590Z,22.97
2022-11-01T09:03:05.005Z,22.79
2022-11-01T09:05:33.084Z,22.64
2022-11-01T09:08:02.073Z,22.51
2022-11-01T09:10:32.198Z,22.23
2022-11-01T09:13:00.902Z,22.40
2022-11-01T09:15:31.396Z,22.41
2022-11-01T09:17:59.544Z,22.26
2022-11-01T09:20:28.379Z,22.07
2022-11-01T09:22:56.445Z,21.83
2022-11-01T09:25:24.840Z,21.76
2022-11-01T09:27:52.836Z,21.49
2022-11-01T09:30:21.463Z,21.55
2022-11-01T09:32:50.971Z,21.37
2022-11-01T09:35:19.400Z,21.96
2022-11-01T09:37:47.412Z,22.31
2022-11-01T09:40:16.624Z,22.90
2022-11-01T09:42:46.438Z,23.03
2022-11-01T09:45:19.367Z,23.28
2022-11-01T09:47:51.038Z,23.22
2022-11-01T09:50:24.827Z,23.56
2022-11-01T09:52:55.242Z,23.29
2022-11-01T09:55:35.281Z,23.32
2022-11-01T09:58:10.158Z,23.95
2022-11-01T10:00:49.831Z,24.33
2022-11-01T10:03:33.759Z,24.19
2022-11-01T10:06:11.849Z,24.53
2022-11-01T10:08:55.487Z,24.73
2022-11-01T10:11:44.754Z,24.66
2022-11-01T10:14:28.788Z,24.32
2022-11-01T10:17:04.843Z,23.94
2022-11-01T10:19:33.362Z,23.97
2022-11-01T10:22:07.252Z,23.60
2022-11-01T10:24:41.040Z,23.74
2022-11-01T10:27:15.704Z,24.19
2022-11-01T10:29:48.952Z,24.46
2022-11-01T10:32:25.987Z,24.72
2022-11-01T10:34:55.871Z,25.24
2022-11-01T10:37:30.265Z,25.79
2022-11-01T10:40:06.662Z,25.93
2022-11-01T10:42:38.000Z,25.66
2022-11-01T10:45:08.915Z,25.57
2022-11-01T10:47:36.997Z,25.29
2022-11-01T10:50:10.486Z,24.66
2022-11-01T10:52:48.759Z,24.08
2022-11-01T10:55:21.048Z,23.80
2022-11-01T10:57:53.828Z,23.31
2022-11-01T11:00:23.762Z,23.38
2022-11-01T11:02:55.432Z,23.75
2022-11-01T11:05:25.570Z,23.74
2022-11-01T11:07:57.368Z,23.82
2022-11-01T11:10:27.928Z,23.58
2022-11-01T11:13:01.748Z,23.75
2022-11-01T11:15:39.179Z,23.81
2022-11-01T11:18:15.924Z,23.96
2022-11-01T11:20:44.301Z,23.88
2022-11-01T11:23:13.924Z,23.79
2022-11-01T11:25:44.833Z,23.54
2022-11-01T11:28:25.627Z,23.24
2022-11-01T11:30:54.170Z,22.87
2022-11-01T11:33:23.263Z,22.55
2022-11-01T11:35:56.794Z,22.52
2022-11-01T11:38:45.496Z,22.62
2022-11-01T11:41:26.505Z,22.34
2022-11-01T11:43:54.696Z,22.14
2022-11-01T11:46:24.665Z,21.92
2022-11-01T11:48:56.727Z,21.96
2022-11-01T11:51:28.097Z,22.17
2022-11-01T11:54:28.923Z,22.25
2022-11-01T11:57:11.544Z,22.66
2022-11-01T11:59:41.403Z,23.20
2022-11-01T12:02:19.578Z,23.87
2022-11-01T12:04:53.044Z,24.58
2022-11-01T12:07:33.005Z,25.24
2022-11-01T12:10:04.238Z,25.60
2022-11-01T12:12:34.720Z,25.69
2022-11-01T12:15:03.999Z,25.33
2022-11-01T12:17:34.828Z,25.00
2022-11-01T12:20:14.224Z,24.56
2022-11-01T12:22:47.805Z,24.39
2022-11-01T12:25:21.288Z,24.36
2022-11-01T12:27:55.527Z,24.60
2022-11-01T12:30:25.907Z,25.02
2022-11-01T12:32:56.001Z,25.22
2022-11-01T12:35:31.398Z,25.61
2022-11-01T12:38:29.123Z,25.73
2022-11-01T12:41:00.387Z,26.26
2022-11-01T12:43:37.225Z,25.84
2022-11-01T12:46:11.505Z,25.35
2022-11-01T12:48:44.748Z,24.95
2022-11-01T12:51:19.352Z,24.62
2022-11-01T12:53:52.269Z,24.46
2022-11-01T12:56:24.343Z,24.20
2022-11-01T12:58:53.968Z,23.90
2022-11-01T13:01:31.593Z,23.66
2022-11-01T13:04:14.641Z,23.54
2022-11-01T13:07:15.732Z,23.68
2022-11-01T13:09:51.720Z,23.59
2022-11-01T13:12:29.678Z,23.79
2022-11-01T13:15:08.044Z,24.04
2022-11-01T13:17:45.387Z,24.38
2022-11-01T13:20:34.704Z,24.77
2022-11-01T13:23:14.895Z,24.90
2022-11-01T13:25:46.780Z,25.22
2022-11-01T13:28:38.985Z,25.05
2022-11-01T13:31:13.288Z,25.09
2022-11-01T13:33:50.002Z,25.09
2022-11-01T13:36:26.140Z,25.29
2022-11-01T13:39:07.081Z,25.21
2022-11-01T13:41:42.045Z,24.88
2022-11-01T13:44:16.871Z,24.51
2022-11-01T13:47:00.749Z,24.21
2022-11-01T13:50:01.055Z,23.97
2022-11-01T13:52:31.358Z,23.66
2022-11-01T13:55:06.556Z,23.54
2022-11-01T13:57:35.639Z,23.35
2022-11-01T14:00:09.199Z,23.35
2022-11-01T14:02:54.639Z,23.58
2022-11-01T14:05:23.473Z,23.77
2022-11-01T14:08:27.690Z,24.08
2022-11-01T14:10:56.415Z,24.31
2022-11-01T14:13:33.297Z,24.19
2022-11-01T14:16:19.529Z,24.14
2022-11-01T14:19:21.459Z,24.42
2022-11-01T14:21:54.562Z,24.90
2022-11-01T14:24:34.939Z,25.01
2022-11-01T14:27:22.825Z,24.74
2022-11-01T14:29:55.561Z,24.84
2022-11-01T14:32:27.973Z,24.53
2022-11-01T14:35:01.380Z,24.44
2022-11-01T14:37:36.593Z,24.43
2022-11-01T14:40:19.816Z,24.31
2022-11-01T14:42:49.860Z,24.23
2022-11-01T14:45:27.750Z,23.98
2022-11-01T14:48:01.547Z,24.02
2022-11-01T14:50:41.688Z,23.88
2022-11-01T14:53:18.258Z,23.71
2022-11-01T14:55:46.345Z,23.72
2022-11-01T14:58:20.471Z,23.68
2022-11-01T15:00:51.902Z,23.42
2022-11-01T15:03:22.603Z,23.21
2022-11-01T15:05:51.867Z,22.90
2022-11-01T15:08:26.076Z,22.52
2022-11-01T15:10:56.904Z,22.47
2022-11-01T15:13:27.749Z,22.18
2022-11-01T15:16:04.752Z,22.09
2022-11-01T15:18:34.460Z,22.02
2022-11-01T15:21:03.074Z,21.78
2022-11-01T15:23:34.768Z,21.62
2022-11-01T15:26:07.466Z,21.69
2022-11-01T15:28:39.348Z,21.53
2022-11-01T15:31:09.908Z,21.54
2022-11-01T15:33:39.748Z,21.63
2022-11-01T15:36:09.632Z,21.52
2022-11-01T15:38:50.898Z,21.47
2022-11-01T15:41:26.711Z,21.34
2022-11-01T15:43:56.979Z,21.18
2022-11-01T15:46:28.073Z,21.15
2022-11-01T15:49:01.060Z,21.16
2022-11-01T15:51:30.917Z,20.95
2022-11-01T15:54:02.723Z,21.03
2022-11-01T15:56:44.163Z,21.02
2022-11-01T15:59:21.904Z,20.92
2022-11-01T16:01:51.445Z,20.90
2022-11-01T16:04:21.975Z,20.81
2022-11-01T16:06:54.133Z,20.61
2022-11-01T16:09:36.235Z,20.58
2022-11-01T16:12:06.649Z,20.53
2022-11-01T16:14:37.830Z,20.44
2022-11-01T16:17:09.852Z,20.26
2022-11-01T16:19:45.181Z,20.34
2022-11-01T16:22:28.808Z,20.28
2022-11-01T16:25:22.247Z,20.16
2022-11-01T16:27:55.959Z,20.15
2022-11-01T16:30:46.248Z,20.13
2022-11-01T16:33:33.768Z,20.06
2022-11-01T16:36:04.456Z,20.00
2022-11-01T16:38:43.374Z,19.95
2022-11-01T16:41:20.401Z,20.04
2022-11-01T16:43:49.616Z,20.12
2022-11-01T16:46:17.676Z,20.13
2022-11-01T16:48:55.264Z,20.04
2022-11-01T16:51:26.885Z,20.04
2022-11-01T16:53:55.855Z,20.11
2022-11-01T16:56:41.998Z,20.05
2022-11-01T16:59:26.475Z,20.07
2022-11-01T17:01:58.274Z,19.90
2022-11-01T17:04:28.020Z,19.77
2022-11-01T17:06:59.151Z,19.88
2022-11-01T17:09:31.687Z,19.97
2022-11-01T17:12:00.015Z,19.98
2022-11-01T17:14:28.076Z,19.98
2022-11-01T17:16:57.250Z,20.04
2022-11-01T17:19:30.879Z,19.99
2022-11-01T17:22:04.004Z,19.73
2022-11-01T17:24:33.474Z,19.92
2022-11-01T17:27:05.169Z,19.94
2022-11-01T17:29:33.704Z,19.92
2022-11-01T17:32:04.077Z,20.04
2022-11-01T17:37:06.881Z,19.94
2022-11-01T17:39:35.113Z,19.83
2022-11-01T17:42:03.196Z,19.76
2022-11-01T17:44:31.168Z,19.83
2022-11-01T17:47:00.254Z,19.66
2022-11-01T17:49:28.575Z,19.72
2022-11-01T17:51:56.969Z,19.75
2022-11-01T17:56:59.439Z,19.79
2022-11-01T17:59:27.430Z,19.92
2022-11-01T18:01:55.567Z,19.98
2022-11-01T18:04:23.645Z,19.95
2022-11-01T18:06:52.032Z,19.99
2022-11-01T18:09:24.636Z,19.82
2022-11-01T18:12:02.588Z,19.74
2022-11-01T18:17:33.042Z,19.77
2022-11-01T18:20:08.982Z,19.94
2022-11-01T18:22:44.217Z,19.86
2022-11-01T18:25:24.753Z,19.86
2022-11-01T18:27:56.321Z,19.89
2022-11-01T18:30:24.632Z,19.81
2022-11-01T18:32:59.061Z,19.72
2022-11-01T18:35:32.693Z,19.71
2022-11-01T18:38:21.878Z,19.80
2022-11-01T18:40:57.471Z,19.81
2022-11-01T18:43:33.374Z,19.67
2022-11-01T18:46:23.890Z,19.69
2022-11-01T18:48:59.562Z,19.72
2022-11-01T18:51:29.499Z,19.68
2022-11-01T18:54:13.632Z,19.56
2022-11-01T18:56:44.560Z,19.66
2022-11-01T18:59:16.235Z,19.59
2022-11-01T19:01:44.361Z,19.32
2022-11-01T19:04:17.647Z,19.26
2022-11-01T19:06:45.744Z,19.27
2022-11-01T19:09:21.458Z,19.25
2022-11-01T19:11:51.951Z,19.33
2022-11-01T19:14:23.455Z,19.26
2022-11-01T19:16:52.199Z,19.30
2022-11-01T19:19:21.539Z,19.33
2022-11-01T19:21:49.574Z,19.36
2022-11-01T19:24:31.018Z,19.21
2022-11-01T19:27:00.087Z,19.18
2022-11-01T19:29:32.624Z,19.21
2022-11-01T19:32:02.757Z,19.15
2022-11-01T19:34:34.896Z,19.18
2022-11-01T19:37:06.190Z,19.14
2022-11-01T19:39:37.628Z,19.13
2022-11-01T19:42:14.099Z,19.11
2022-11-01T19:44:43.834Z,19.06
2022-11-01T19:47:39.718Z,19.16
2022-11-01T19:50:23.087Z,18.97
2022-11-01T19:52:52.687Z,19.07
2022-11-01T19:55:36.117Z,19.06
2022-11-01T19:58:04.430Z,19.06
2022-11-01T20:00:34.592Z,19.08
2022-11-01T20:03:26.668Z,18.99
2022-11-01T20:05:56.361Z,18.96
2022-11-01T20:08:30.621Z,19.03
2022-11-01T20:10:58.684Z,19.01
2022-11-01T20:13:26.678Z,18.92
2022-11-01T20:15:56.104Z,18.97
2022-11-01T20:18:24.221Z,19.01
2022-11-01T20:20:54.083Z,19.10
2022-11-01T20:23:26.729Z,19.05
2022-11-01T20:25:55.439Z,18.96
2022-11-01T20:28:23.455Z,18.88
2022-11-01T20:30:51.459Z,19.08
2022-11-01T20:33:20.903Z,19.22
2022-11-01T20:35:49.254Z,19.16
2022-11-01T20:38:17.469Z,19.13
2022-11-01T20:40:46.048Z,19.16
2022-11-01T20:43:14.123Z,19.20
2022-11-01T20:45:42.470Z,19.24
2022-11-01T20:48:11.172Z,19.21
2022-11-01T20:50:40.669Z,19.11
2022-11-01T20:53:08.808Z,19.23
2022-11-01T20:55:37.071Z,19.11
2022-11-01T20:58:05.332Z,19.21
2022-11-01T21:00:33.644Z,19.23
2022-11-01T21:03:03.237Z,19.23
2022-11-01T21:05:34.695Z,19.39
2022-11-01T21:08:12.980Z,19.39
2022-11-01T21:10:43.270Z,19.26
2022-11-01T21:13:27.775Z,19.18
2022-11-01T21:15:57.799Z,19.25
2022-11-01T21:18:37.952Z,19.36
2022-11-01T21:21:34.459Z,19.16
2022-11-01T21:24:27.059Z,19.23
2022-11-01T21:27:23.768Z,19.16
2022-11-01T21:29:52.923Z,19.29
2022-11-01T21:32:28.956Z,19.02
2022-11-01T21:34:58.373Z,19.12
2022-11-01T21:37:29.644Z,19.25
2022-11-01T21:40:05.987Z,19.22
2022-11-01T21:42:37.123Z,19.16
2022-11-01T21:45:27.525Z,19.36
2022-11-01T21:47:56.913Z,19.36
2022-11-01T21:50:24.873Z,19.33
2022-11-01T21:52:52.877Z,19.29
2022-11-01T21:55:22.498Z,19.37
2022-11-01T21:57:50.474Z,19.24
2022-11-01T22:00:18.586Z,19.20
2022-11-01T22:02:46.607Z,19.21
2022-11-01T22:05:14.823Z,19.22
2022-11-01T22:07:42.832Z,19.25
2022-11-01T22:10:11.179Z,19.13
2022-11-01T22:12:40.565Z,19.18
2022-11-01T22:15:09.457Z,19.18
2022-11-01T22:17:37.524Z,19.25
2022-11-01T22:20:06.533Z,19.18
2022-11-01T22:22:34.623Z,19.10
2022-11-01T22:25:02.645Z,19.12
2022-11-01T22:27:30.624Z,19.16
2022-11-01T22:30:00.021Z,19.21
2022-11-01T22:32:27.984Z,19.22
2022-11-01T22:34:56.317Z,19.21
2022-11-01T22:37:25.252Z,19.29
2022-11-01T22:39:53.917Z,19.29
2022-11-01T22:42:22.009Z,19.32
2022-11-01T22:44:51.265Z,19.26
2022-11-01T22:47:25.587Z,19.02
2022-11-01T22:49:55.972Z,18.89
2022-11-01T22:52:31.223Z,18.96
2022-11-01T22:55:04.494Z,19.02
2022-11-01T22:57:35.880Z,18.93
2022-11-01T23:00:27.147Z,18.79
2022-11-01T23:03:01.067Z,18.81
2022-11-01T23:05:29.499Z,18.76
2022-11-01T23:08:00.722Z,18.54
2022-11-01T23:10:31.738Z,18.41
2022-11-01T23:13:41.816Z,18.43
2022-11-01T23:16:22.913Z,18.37
2022-11-01T23:18:53.316Z,18.50
2022-11-01T23:21:22.865Z,18.56
2022-11-01T23:23:51.151Z,18.73
2022-11-01T23:26:22.129Z,18.63
2022-11-01T23:28:53.941Z,18.68
2022-11-01T23:31:22.750Z,18.67
2022-11-01T23:33:52.747Z,18.65
2022-11-01T23:36:24.049Z,18.57
2022-11-01T23:38:55.499Z,18.36
2022-11-01T23:41:26.700Z,18.49
2022-11-01T23:43:57.753Z,18.44
2022-11-01T23:46:27.054Z,18.63
2022-11-01T23:49:00.848Z,18.52
2022-11-01T23:51:30.056Z,18.53
2022-11-01T23:53:58.924Z,18.70
2022-11-01T23:56:27.309Z,18.76
2022-11-01T23:58:59.937Z,18.86
